createdAt,value
2023-03-22T00:01:17.896Z,100621.09
2023-03-22T00:03:45.843Z,100627.41
2023-03-22T00:06:13.599Z,100630.25
2023-03-22T00:08:41.364Z,100631.31
2023-03-22T00:11:08.871Z,100633.28
2023-03-22T00:13:37.607Z,100630.88
2023-03-22T00:16:06.100Z,100636.34
2023-03-22T00:18:33.675Z,100628.47
2023-03-22T00:21:02.042Z,100625.00
2023-03-22T00:23:29.884Z,100631.38
2023-03-22T00:25:57.228Z,100631.44
2023-03-22T00:28:26.296Z,100640.31
2023-03-22T00:30:57.983Z,100636.91
2023-03-22T00:33:29.269Z,100641.38
2023-03-22T00:36:10.848Z,100638.78
2023-03-22T00:38:44.006Z,100645.13
2023-03-22T00:41:26.863Z,100636.41
2023-03-22T00:43:54.275Z,100629.53
2023-03-22T00:46:21.890Z,100631.41
2023-03-22T00:48:49.418Z,100630.59
2023-03-22T00:51:17.524Z,100632.66
2023-03-22T00:53:54.075Z,100624.91
2023-03-22T00:56:23.206Z,100621.56
2023-03-22T00:58:51.383Z,100640.91
2023-03-22T01:01:18.474Z,100638.25
2023-03-22T01:03:52.301Z,100619.00
2023-03-22T01:06:19.322Z,100630.41
2023-03-22T01:08:49.262Z,100634.84
2023-03-22T01:11:16.778Z,100626.16
2023-03-22T01:13:44.133Z,100619.19
2023-03-22T01:16:12.551Z,100616.53
2023-03-22T01:18:40.849Z,100618.31
2023-03-22T01:21:08.170Z,100617.50
2023-03-22T01:23:36.782Z,100626.31
2023-03-22T01:26:04.865Z,100622.09
2023-03-22T01:28:32.484Z,100623.94
2023-03-22T01:31:03.250Z,100613.50
2023-03-22T01:33:31.237Z,100616.19
2023-03-22T01:35:59.402Z,100613.66
2023-03-22T01:38:26.750Z,100605.88
2023-03-22T01:40:53.828Z,100619.13
2023-03-22T01:43:21.645Z,100618.31
2023-03-22T01:45:50.560Z,100607.91
2023-03-22T01:48:46.333Z,100615.91
2023-03-22T01:51:24.066Z,100612.50
2023-03-22T01:54:02.836Z,100607.31
2023-03-22T01:56:33.723Z,100618.75
2023-03-22T01:59:02.919Z,100616.16
2023-03-22T02:01:30.997Z,100618.00
2023-03-22T02:04:20.150Z,100623.31
2023-03-22T02:06:48.427Z,100617.44
2023-03-22T02:09:22.199Z,100628.09
2023-03-22T02:12:12.390Z,100627.38
2023-03-22T02:14:56.603Z,100623.13
2023-03-22T02:18:06.512Z,100627.66
2023-03-22T02:20:59.327Z,100633.06
2023-03-22T02:23:42.411Z,100633.16
2023-03-22T02:26:18.874Z,100629.81
2023-03-22T02:28:51.849Z,100636.03
2023-03-22T02:31:39.348Z,100626.56
2023-03-22T02:34:18.212Z,100630.06
2023-03-22T02:36:51.497Z,100634.56
2023-03-22T02:39:37.947Z,100629.38
2023-03-22T02:42:42.649Z,100635.63
2023-03-22T02:45:12.636Z,100641.97
2023-03-22T02:47:39.910Z,100641.28
2023-03-22T02:50:07.079Z,100643.13
2023-03-22T02:52:50.339Z,100648.53
2023-03-22T02:55:17.318Z,100647.72
2023-03-22T02:57:56.290Z,100648.69
2023-03-22T03:00:26.058Z,100644.31
2023-03-22T03:03:00.177Z,100646.94
2023-03-22T03:05:31.106Z,100653.16
2023-03-22T03:08:02.595Z,100653.25
2023-03-22T03:10:30.274Z,100651.53
2023-03-22T03:12:58.865Z,100652.50
2023-03-22T03:15:26.080Z,100651.72
2023-03-22T03:17:56.404Z,100657.88
2023-03-22T03:20:55.807Z,100662.31
2023-03-22T03:23:49.319Z,100657.06
2023-03-22T03:26:35.761Z,100662.44
2023-03-22T03:29:09.963Z,100666.03
2023-03-22T03:31:43.855Z,100668.75
2023-03-22T03:34:25.750Z,100668.81
2023-03-22T03:37:15.268Z,100663.63
2023-03-22T03:39:53.262Z,100665.50
2023-03-22T03:42:23.950Z,100665.56
2023-03-22T03:44:51.372Z,100673.47
2023-03-22T03:47:19.557Z,100668.22
2023-03-22T03:49:47.199Z,100677.16
2023-03-22T03:52:14.335Z,100678.94
2023-03-22T03:54:41.772Z,100677.16
2023-03-22T03:57:12.405Z,100672.00
2023-03-22T03:59:39.812Z,100678.97
2023-03-22T04:02:06.809Z,100680.75
2023-03-22T04:04:36.104Z,100679.00
2023-03-22T04:07:05.766Z,100684.25
2023-03-22T04:09:36.004Z,100686.06
2023-03-22T04:12:03.743Z,100675.63
2023-03-22T04:14:34.038Z,100683.47
2023-03-22T04:17:01.236Z,100686.97
2023-03-22T04:19:28.800Z,100688.66
2023-03-22T04:21:59.072Z,100694.88
2023-03-22T04:24:27.112Z,100691.41
2023-03-22T04:26:54.617Z,100697.56
2023-03-22T04:29:23.070Z,100701.13
2023-03-22T04:31:53.420Z,100705.53
2023-03-22T04:34:23.788Z,100704.69
2023-03-22T04:36:51.192Z,100708.91
2023-03-22T04:39:20.942Z,100710.63
2023-03-22T04:41:48.078Z,100711.34
2023-03-22T04:44:17.584Z,100706.97
2023-03-22T04:46:45.185Z,100730.50
2023-03-22T04:49:13.409Z,100714.81
2023-03-22T04:51:41.354Z,100715.63
2023-03-22T04:54:08.879Z,100729.53
2023-03-22T04:56:36.202Z,100725.09
2023-03-22T04:59:03.599Z,100733.75
2023-03-22T05:01:30.782Z,100743.31
2023-03-22T05:03:58.448Z,100738.91
2023-03-22T05:06:30.307Z,100744.16
2023-03-22T05:08:57.798Z,100737.19
2023-03-22T05:11:30.234Z,100739.59
2023-03-22T05:13:58.006Z,100728.22
2023-03-22T05:16:25.843Z,100742.13
2023-03-22T05:18:57.125Z,100745.59
2023-03-22T05:21:28.826Z,100738.56
2023-03-22T05:23:57.969Z,100750.66
2023-03-22T05:26:26.539Z,100754.97
2023-03-22T05:28:55.341Z,100754.88
2023-03-22T05:31:28.900Z,100758.28
2023-03-22T05:33:56.682Z,100771.47
2023-03-22T05:36:35.493Z,100772.16
2023-03-22T05:39:06.097Z,100772.03
2023-03-22T05:41:36.321Z,100768.53
2023-03-22T05:44:05.170Z,100785.78
2023-03-22T05:46:32.498Z,100781.19
2023-03-22T05:49:14.633Z,100791.44
2023-03-22T05:56:12.676Z,100795.00
2023-03-22T05:58:51.828Z,100785.94
2023-03-22T06:04:34.638Z,100797.56
2023-03-22T06:07:02.196Z,100796.63
2023-03-22T06:09:29.958Z,100804.28
2023-03-22T06:11:58.701Z,100800.44
2023-03-22T06:14:27.335Z,100792.22
2023-03-22T06:16:56.668Z,100797.25
2023-03-22T06:19:28.914Z,100790.84
2023-03-22T06:21:57.291Z,100807.09
2023-03-22T06:24:24.418Z,100794.56
2023-03-22T06:26:53.361Z,100809.03
2023-03-22T06:29:20.891Z,100800.84
2023-03-22T06:34:30.557Z,100808.88
2023-03-22T06:37:00.363Z,100814.72
2023-03-22T06:39:27.784Z,100809.09
2023-03-22T06:41:56.577Z,100814.91
2023-03-22T06:44:23.739Z,100812.00
2023-03-22T06:49:57.178Z,100821.72
2023-03-22T06:52:27.006Z,100814.97
2023-03-22T06:54:58.429Z,100815.44
2023-03-22T06:57:28.410Z,100824.69
2023-03-22T06:59:59.922Z,100826.09
2023-03-22T07:02:31.929Z,100821.81
2023-03-22T07:04:59.231Z,100825.28
2023-03-22T07:07:27.052Z,100819.91
2023-03-22T07:09:54.473Z,100827.72
2023-03-22T07:12:25.144Z,100824.84
2023-03-22T07:14:52.434Z,100827.75
2023-03-22T07:17:27.523Z,100825.47
2023-03-22T07:19:55.339Z,100826.41
2023-03-22T07:22:26.133Z,100831.94
2023-03-22T07:24:57.579Z,100826.97
2023-03-22T07:27:31.135Z,100826.59
2023-03-22T07:29:58.480Z,100828.00
2023-03-22T07:32:27.202Z,100831.91
2023-03-22T07:34:54.395Z,100832.56
2023-03-22T07:37:31.081Z,100832.78
2023-03-22T07:39:58.249Z,100830.50
2023-03-22T07:42:29.421Z,100834.56
2023-03-22T07:44:57.162Z,100832.38
2023-03-22T07:53:06.816Z,100827.16
2023-03-22T07:55:36.190Z,100826.94
2023-03-22T07:58:12.113Z,100823.47
2023-03-22T08:00:44.572Z,100826.91
2023-03-22T08:03:13.413Z,100827.03
2023-03-22T08:05:44.402Z,100822.16
2023-03-22T08:08:13.713Z,100822.16
2023-03-22T08:10:48.558Z,100816.41
2023-03-22T08:13:15.708Z,100810.59
2023-03-22T08:15:43.859Z,100811.50
2023-03-22T08:18:11.450Z,100813.69
2023-03-22T08:20:39.407Z,100809.00
2023-03-22T08:23:08.232Z,100807.84
2023-03-22T08:25:37.796Z,100804.16
2023-03-22T08:28:05.337Z,100809.63
2023-03-22T08:30:33.453Z,100806.72
2023-03-22T08:33:01.305Z,100804.72
2023-03-22T08:35:28.991Z,100807.53
2023-03-22T08:37:57.060Z,100802.94
2023-03-22T08:40:24.997Z,100807.84
2023-03-22T08:42:52.471Z,100812.91
2023-03-22T08:45:20.031Z,100803.63
2023-03-22T08:47:49.791Z,100811.31
2023-03-22T08:50:28.514Z,100807.28
2023-03-22T08:52:56.667Z,100813.50
2023-03-22T08:55:24.936Z,100818.75
2023-03-22T08:57:52.197Z,100815.81
2023-03-22T09:00:20.900Z,100816.75
2023-03-22T09:02:50.960Z,100806.56
2023-03-22T09:05:33.552Z,100794.03
2023-03-22T09:08:06.604Z,100805.81
2023-03-22T09:10:36.422Z,100801.03
2023-03-22T09:13:08.782Z,100794.94
2023-03-22T09:15:36.149Z,100795.84
2023-03-22T09:18:04.152Z,100796.28
2023-03-22T09:20:31.280Z,100793.56
2023-03-22T09:22:59.098Z,100796.63
2023-03-22T09:25:28.221Z,100796.31
2023-03-22T09:27:56.452Z,100791.34
2023-03-22T09:30:29.903Z,100784.47
2023-03-22T09:33:09.569Z,100795.13
2023-03-22T09:35:43.146Z,100789.53
2023-03-22T09:38:12.480Z,100790.75
2023-03-22T09:40:53.574Z,100787.69
2023-03-22T09:43:21.658Z,100786.16
2023-03-22T09:45:51.883Z,100792.19
2023-03-22T09:48:29.937Z,100782.16
2023-03-22T09:51:01.269Z,100782.69
2023-03-22T09:53:33.418Z,100782.69
2023-03-22T09:56:24.092Z,100780.25
2023-03-22T09:59:21.672Z,100785.13
2023-03-22T10:02:01.364Z,100778.16
2023-03-22T10:04:47.232Z,100777.00
2023-03-22T10:07:40.890Z,100774.66
2023-03-22T10:10:21.916Z,100772.59
2023-03-22T10:12:58.732Z,100766.00
2023-03-22T10:15:36.398Z,100761.44
2023-03-22T10:18:08.470Z,100768.00
2023-03-22T10:20:53.477Z,100753.75
2023-03-22T10:23:29.857Z,100753.16
2023-03-22T10:26:01.449Z,100761.47
2023-03-22T10:28:38.036Z,100755.13
2023-03-22T10:31:11.066Z,100747.72
2023-03-22T10:33:54.264Z,100747.41
2023-03-22T10:36:27.373Z,100750.72
2023-03-22T10:39:19.598Z,100747.13
2023-03-22T10:41:48.270Z,100740.47
2023-03-22T10:47:58.385Z,100739.69
2023-03-22T10:50:32.887Z,100724.91
2023-03-22T10:53:32.236Z,100735.44
2023-03-22T10:55:59.832Z,100730.16
2023-03-22T10:58:35.075Z,100736.56
2023-03-22T11:01:11.739Z,100734.84
2023-03-22T11:03:41.269Z,100711.13
2023-03-22T11:06:22.962Z,100717.13
2023-03-22T11:08:53.516Z,100721.06
2023-03-22T11:11:36.063Z,100711.44
2023-03-22T11:14:30.038Z,100708.03
2023-03-22T11:17:10.362Z,100709.22
2023-03-22T11:19:41.811Z,100712.00
2023-03-22T11:22:32.707Z,100706.28
2023-03-22T11:25:01.460Z,100706.09
2023-03-22T11:27:34.412Z,100691.25
2023-03-22T11:30:22.385Z,100699.41
2023-03-22T11:33:00.347Z,100694.00
2023-03-22T11:35:34.287Z,100694.34
2023-03-22T11:38:02.474Z,100693.63
2023-03-22T11:40:31.768Z,100697.69
2023-03-22T11:43:19.909Z,100686.66
2023-03-22T11:45:52.022Z,100675.00
2023-03-22T11:48:23.909Z,100683.97
2023-03-22T11:50:59.584Z,100682.19
2023-03-22T11:53:34.451Z,100674.19
2023-03-22T11:56:27.534Z,100670.19
2023-03-22T11:59:07.651Z,100664.84
2023-03-22T12:01:49.238Z,100672.88
2023-03-22T12:04:23.269Z,100654.53
2023-03-22T12:06:55.527Z,100666.31
2023-03-22T12:09:32.946Z,100667.47
2023-03-22T12:12:02.535Z,100661.97
2023-03-22T12:14:47.237Z,100671.78
2023-03-22T12:18:01.400Z,100666.28
2023-03-22T12:20:47.938Z,100659.59
2023-03-22T12:23:18.189Z,100656.22
2023-03-22T12:26:15.920Z,100652.41
2023-03-22T12:29:05.495Z,100648.31
2023-03-22T12:31:43.209Z,100644.19
2023-03-22T12:34:18.373Z,100641.31
2023-03-22T12:36:52.736Z,100644.88
2023-03-22T12:39:26.373Z,100659.78
2023-03-22T12:42:00.567Z,100641.50
2023-03-22T12:45:02.173Z,100638.78
2023-03-22T12:47:41.982Z,100638.66
2023-03-22T12:50:19.666Z,100638.03
2023-03-22T12:52:56.080Z,100638.94
2023-03-22T12:58:27.016Z,100637.66
2023-03-22T13:01:10.862Z,100636.19
2023-03-22T13:03:52.271Z,100636.91
2023-03-22T13:06:30.270Z,100626.66
2023-03-22T13:09:30.460Z,100618.34
2023-03-22T13:12:19.077Z,100623.41
2023-03-22T13:14:52.259Z,100628.81
2023-03-22T13:17:22.388Z,100631.50
2023-03-22T13:20:20.048Z,100629.22
2023-03-22T13:22:48.435Z,100630.44
2023-03-22T13:25:23.828Z,100641.91
2023-03-22T13:27:58.223Z,100640.09
2023-03-22T13:30:52.898Z,100648.31
2023-03-22T13:33:30.779Z,100632.78
2023-03-22T13:36:07.045Z,100631.63
2023-03-22T13:38:42.105Z,100643.56
2023-03-22T13:41:37.812Z,100636.59
2023-03-22T13:44:36.512Z,100636.47
2023-03-22T13:47:07.957Z,100634.69
2023-03-22T13:49:55.605Z,100629.31
2023-03-22T13:52:27.551Z,100633.38
2023-03-22T13:54:57.910Z,100637.78
2023-03-22T13:57:47.555Z,100642.59
2023-03-22T14:00:30.610Z,100642.91
2023-03-22T14:03:33.757Z,100642.44
2023-03-22T14:06:25.978Z,100652.66
2023-03-22T14:09:13.901Z,100644.78
2023-03-22T14:11:51.995Z,100642.97
2023-03-22T14:14:24.607Z,100641.47
2023-03-22T14:17:21.877Z,100648.09
2023-03-22T14:19:51.834Z,100645.34
